Pont Aven — FNPN — position and weather

sailwx.info

Track history (hours):
 
Tides and Currents Weather Stations Pressure Air Temp Water Temp Dewpoint Dewpoint Depression Visibility Wind Speed Wind Dir Waves Ship Positions

Pont Aven

Last reported at 2018-Oct-24 04:56 UTC. Time now 2018-Oct-24 05:19 UTC.
Position N 47°33' W 005°00'.

Length 185 m; beam 31 m.

Type: Passenger vessel. MMSI: 228183600.

Date/timePositionNaut miles runAvg speedWind from/ knotsBaromVisibWave heightAir tempDewpointWater temp
2018-Oct-24 04:56N 47°33' W 005°00'1123.9
2018-Oct-24 04:28N 47°44' W 005°06'1023.6
2018-Oct-24 04:04N 47°54' W 005°07'123.3
2018-Oct-24 04:01N 47°55' W 005°07'1122.9
2018-Oct-24 03:30N 48°06' W 005°10'1022.1
2018-Oct-24 03:03N 48°16' W 005°08'122.3
2018-Oct-24 03:01N 48°17' W 005°08'1019.6
2018-Oct-24 02:31N 48°26' W 005°03'817.3
2018-Oct-24 02:03N 48°32' W 004°55'121.4
2018-Oct-24 02:01N 48°33' W 004°54'1020.7
2018-Oct-24 01:31N 48°41' W 004°44'1021.7
2018-Oct-24 01:03N 48°48' W 004°34'122.0
2018-Oct-24 01:01N 48°49' W 004°33'1122.9
2018-Oct-24 00:31N 48°57' W 004°21'1123.6
2018-Oct-24 00:04N 49°05' W 004°11'123.7
2018-Oct-24 00:01N 49°06' W 004°10'1224.4
2018-Oct-23 23:31N 49°16' W 003°57'1124.7
2018-Oct-23 23:03N 49°24' W 003°46'124.9
2018-Oct-23 23:00N 49°25' W 003°45'1224.7
2018-Oct-23 22:31N 49°34' W 003°32'1124.2
2018-Oct-23 22:03N 49°41' W 003°20'224.0
2018-Oct-23 21:59N 49°42' W 003°18'1223.5
2018-Oct-23 21:29N 49°51' W 003°04'1022.6
2018-Oct-23 21:02N 49°58' W 002°53'122.3
2018-Oct-23 21:00N 49°58' W 002°52'2721.1
2018-Oct-23 19:44N 50°09' W 002°14'1120.0
2018-Oct-23 19:10N 50°15' W 001°59'219.9
2018-Oct-23 19:03N 50°16' W 001°56'120.3
2018-Oct-23 19:01N 50°16' W 001°54'1620.0
2018-Oct-23 18:11N 50°25' W 001°32'820.2
2018-Oct-23 17:49N 50°28' W 001°22'620.0
2018-Oct-23 17:30N 50°31' W 001°14'919.6
2018-Oct-23 17:03N 50°36' W 001°02'120.0
2018-Oct-23 17:00N 50°37' W 001°01'714.8
2018-Oct-23 16:30N 50°44' W 001°03'511.1
2018-Oct-23 16:04N 50°49' W 001°06'0 4.6
2018-Oct-23 16:00N 50°49' W 001°06'0 0.1
2018-Oct-23 15:30N 50°49' W 001°06'0 0.0
2018-Oct-23 15:03N 50°49' W 001°06'0 0.0
2018-Oct-23 15:00N 50°49' W 001°06'0 0.0
2018-Oct-23 14:30N 50°49' W 001°06'0 0.0
2018-Oct-23 13:30N 50°49' W 001°06'0 0.7
2018-Oct-23 13:04N 50°49' W 001°06'0 6.9
2018-Oct-23 13:01N 50°48' W 001°07'611.2
2018-Oct-23 12:31N 50°43' W 001°03'715.2
2018-Oct-23 12:03N 50°37' W 001°06'119.5
2018-Oct-23 12:00N 50°36' W 001°07'1019.7
2018-Oct-23 11:29N 50°28' W 001°18'921.0
2018-Oct-23 11:03N 50°23' W 001°29'121.6
2018-Oct-23 11:00N 50°22' W 001°31'1122.1
2018-Oct-23 10:30N 50°15' W 001°44'1022.7
2018-Oct-23 10:04N 50°09' W 001°56'123.0
2018-Oct-23 10:01N 50°08' W 001°58'1223.3
2018-Oct-23 09:30N 50°01' W 002°12'1123.6
2018-Oct-23 09:03N 49°55' W 002°26'123.8
2018-Oct-23 09:00N 49°55' W 002°28'1223.8
2018-Oct-23 08:30N 49°51' W 002°45'2523.6
2018-Oct-23 07:26N 49°35' W 003°16'5223.7
2018-Oct-23 05:15N 48°59' W 004°13'524.0
2018-Oct-23 05:03N 48°56' W 004°18'223.9
2018-Oct-23 04:57N 48°54' W 004°21'1123.8
2018-Oct-23 04:31N 48°47' W 004°32'1123.9
2018-Oct-23 04:03N 48°39' W 004°44'124.0
2018-Oct-23 04:01N 48°38' W 004°46'1122.9
2018-Oct-23 03:30N 48°30' W 004°57'716.3
2018-Oct-23 03:03N 48°24' W 005°05'116.3
2018-Oct-23 03:00N 48°24' W 005°05'1122.6
2018-Oct-23 02:31N 48°13' W 005°09'1123.8
2018-Oct-23 02:03N 48°02' W 005°10'223.8
2018-Oct-23 01:58N 47°60' W 005°09'1123.5
2018-Oct-23 01:30N 47°49' W 005°06'1022.9
2018-Oct-23 01:04N 47°39' W 005°02'122.9
2018-Oct-23 01:00N 47°38' W 005°02'1622.9
2018-Oct-23 00:17N 47°22' W 004°56'523.1
2018-Oct-23 00:03N 47°17' W 004°54'323.0
2018-Oct-22 23:56N 47°14' W 004°53'1022.7
2018-Oct-22 23:30N 47°05' W 004°51'20422.2
2018-Oct-22 14:19N 43°45' W 003°50'1712.8
2018-Oct-22 12:57N 43°28' W 003°48'4 1.2
2018-Oct-22 09:37N 43°31' W 003°45'323.5
2018-Oct-22 09:31N 43°33' W 003°46'1123.6
2018-Oct-22 09:04N 43°44' W 003°49'123.3
2018-Oct-22 09:01N 43°45' W 003°50'19923.6
2018-Oct-22 00:34N 46°59' W 004°49'223.0
2018-Oct-22 00:30N 47°01' W 004°50'1023.3
2018-Oct-22 00:03N 47°11' W 004°53'123.4
2018-Oct-22 00:00N 47°12' W 004°54'1123.0
2018-Oct-21 23:31N 47°23' W 004°58'1023.0
2018-Oct-21 23:04N 47°33' W 005°01'122.6
2018-Oct-21 23:00N 47°34' W 005°01'1122.8
2018-Oct-21 22:31N 47°46' W 005°05'1022.5
2018-Oct-21 22:04N 47°55' W 005°08'322.4
2018-Oct-21 21:55N 47°58' W 005°09'922.4
2018-Oct-21 21:30N 48°08' W 005°10'2120.6
2018-Oct-21 20:30N 48°27' W 005°00'921.1
2018-Oct-21 20:03N 48°36' W 004°57'124.5
2018-Oct-21 20:01N 48°38' W 004°56'1224.5
2018-Oct-21 19:31N 48°50' W 004°53'1124.3
2018-Oct-21 19:03N 49°00' W 004°48'227.9
2018-Oct-21 18:59N 49°02' W 004°48'1123.3
2018-Oct-21 18:31N 49°13' W 004°42'1123.6
2018-Oct-21 18:03N 49°23' W 004°36'123.3
2018-Oct-21 18:01N 49°24' W 004°36'1223.3
2018-Oct-21 17:30N 49°35' W 004°31'1622.9
2018-Oct-21 16:48N 49°50' W 004°21'1022.7
2018-Oct-21 16:21N 49°60' W 004°17'1822.5
2018-Oct-21 15:32N 50°18' W 004°11'221.0
2018-Oct-21 15:27N 50°19' W 004°11'3 6.5
2018-Oct-21 15:04N 50°22' W 004°09'0 0.0
2018-Oct-21 15:01N 50°22' W 004°09'0 0.0
2018-Oct-21 14:31N 50°22' W 004°09'0 0.0
2018-Oct-21 14:01N 50°22' W 004°09'0 0.0
2018-Oct-21 13:31N 50°22' W 004°09'0 0.0
2018-Oct-21 13:03N 50°22' W 004°09'0 0.0
2018-Oct-21 13:00N 50°22' W 004°09'0 0.0
2018-Oct-21 12:30N 50°22' W 004°09'1 2.4
2018-Oct-21 12:04N 50°21' W 004°09'1 9.5
2018-Oct-21 12:00N 50°20' W 004°09'918.2
2018-Oct-21 11:29N 50°11' W 004°10'1121.9
2018-Oct-21 10:59N 50°00' W 004°07'1021.7
2018-Oct-21 10:30N 49°50' W 004°06'1022.2
2018-Oct-21 10:03N 49°40' W 004°04'122.4
2018-Oct-21 10:00N 49°39' W 004°04'1322.7
2018-Oct-21 09:27N 49°26' W 004°03'1122.4
2018-Oct-21 08:58N 49°15' W 004°02'1022.3
2018-Oct-21 08:30N 49°05' W 004°01'1022.4
2018-Oct-21 08:03N 48°55' W 003°59'122.3
2018-Oct-21 08:00N 48°54' W 003°59'1020.7
2018-Oct-21 07:31N 48°44' W 003°57'1 1.9
2018-Oct-21 07:03N 48°43' W 003°58'0 0.0
2018-Oct-21 07:01N 48°43' W 003°58'0 0.0
2018-Oct-21 06:31N 48°43' W 003°58'0 0.0
2018-Oct-21 06:03N 48°43' W 003°58'0 0.0
2018-Oct-21 06:01N 48°43' W 003°58'0 0.0
2018-Oct-21 05:31N 48°43' W 003°58'0 0.0
2018-Oct-21 05:03N 48°43' W 003°58'0 0.0
2018-Oct-21 05:00N 48°43' W 003°58'2 3.3
2018-Oct-21 04:30N 48°45' W 003°57'817.5
2018-Oct-21 04:03N 48°51' W 004°05'119.9
2018-Oct-21 04:00N 48°51' W 004°06'1019.9
2018-Oct-21 03:30N 48°58' W 004°17'920.0
2018-Oct-21 03:03N 49°04' W 004°27'120.4
2018-Oct-21 03:00N 49°05' W 004°28'1020.0
2018-Oct-21 02:30N 49°11' W 004°40'920.1
2018-Oct-21 02:03N 49°18' W 004°50'120.4
2018-Oct-21 02:00N 49°18' W 004°51'1020.3
2018-Oct-21 01:30N 49°25' W 005°02'920.3
2018-Oct-21 01:03N 49°31' W 005°13'220.0
2018-Oct-21 00:58N 49°32' W 005°16'920.1
2018-Oct-21 00:30N 49°38' W 005°27'920.1
2018-Oct-21 00:03N 49°43' W 005°38'119.9
2018-Oct-21 00:01N 49°44' W 005°39'1319.8
2018-Oct-20 23:21N 49°52' W 005°55'1118.0
2018-Oct-20 22:44N 50°03' W 006°00'519.4
2018-Oct-20 22:28N 50°08' W 006°01'819.5
2018-Oct-20 22:03N 50°16' W 006°02'119.6
2018-Oct-20 22:00N 50°17' W 006°03'918.6
2018-Oct-20 21:30N 50°25' W 006°10'919.6
2018-Oct-20 21:03N 50°31' W 006°20'119.9
2018-Oct-20 21:00N 50°32' W 006°21'1019.8
2018-Oct-20 20:30N 50°39' W 006°32'2019.6
2018-Oct-20 19:29N 50°53' W 006°54'4819.5
2018-Oct-20 17:01N 51°28' W 007°48'119.8
2018-Oct-20 16:59N 51°28' W 007°48'919.8
2018-Oct-20 16:30N 51°35' W 007°59'920.0
2018-Oct-20 16:03N 51°41' W 008°09'120.1
2018-Oct-20 16:00N 51°42' W 008°10'815.4
2018-Oct-20 15:30N 51°49' W 008°16'2 5.2
2018-Oct-20 15:03N 51°50' W 008°19'0 8.0
2018-Oct-20 15:01N 51°50' W 008°19'0 0.7
2018-Oct-20 14:30N 51°50' W 008°19'0 0.0
2018-Oct-20 14:00N 51°50' W 008°19'0 0.0
2018-Oct-20 13:30N 51°50' W 008°19'0 0.0
2018-Oct-20 13:03N 51°50' W 008°19'0 0.0
2018-Oct-20 13:00N 51°50' W 008°19'0 0.0
2018-Oct-20 12:30N 51°50' W 008°19'0 0.0
2018-Oct-20 12:01N 51°50' W 008°19'0 0.0
2018-Oct-20 11:58N 51°50' W 008°19'0 0.0
2018-Oct-20 11:28N 51°50' W 008°19'0 0.0
2018-Oct-20 11:01N 51°50' W 008°19'0 0.0
2018-Oct-20 10:58N 51°50' W 008°19'0 0.0
2018-Oct-20 10:28N 51°50' W 008°19'0 0.0
2018-Oct-20 10:01N 51°50' W 008°19'0 0.0
2018-Oct-20 09:58N 51°50' W 008°19'0 0.0
2018-Oct-20 09:28N 51°50' W 008°19'0 0.0
2018-Oct-20 09:01N 51°50' W 008°19'0 0.0
2018-Oct-20 08:58N 51°50' W 008°19'0 0.0
2018-Oct-20 08:28N 51°50' W 008°19'1 1.3
2018-Oct-20 08:03N 51°50' W 008°19'0 7.7
2018-Oct-20 08:00N 51°51' W 008°19'3 6.9
2018-Oct-20 07:30N 51°48' W 008°16'918.9
2018-Oct-20 07:03N 51°41' W 008°07'121.7
2018-Oct-20 07:00N 51°40' W 008°05'1121.6
2018-Oct-20 06:30N 51°33' W 007°52'1021.6
2018-Oct-20 06:03N 51°27' W 007°41'121.7
2018-Oct-20 06:00N 51°26' W 007°39'1121.6
2018-Oct-20 05:30N 51°18' W 007°28'1119.6
2018-Oct-20 04:58N 51°10' W 007°16'1319.7
2018-Oct-20 04:19N 51°01' W 007°03'619.5
2018-Oct-20 04:00N 50°57' W 006°55'2119.4
2018-Oct-20 02:56N 50°42' W 006°32'2119.5
2018-Oct-20 01:50N 50°28' W 006°07'919.5
2018-Oct-20 01:24N 50°22' W 005°58'1119.6
2018-Oct-20 00:49N 50°11' W 005°53'11519.0
2018-Oct-19 18:47N 48°45' W 003°57'2 0.2
2018-Oct-19 11:17N 48°43' W 003°58'0 0.0
2018-Oct-19 11:02N 48°43' W 003°58'0 0.0
2018-Oct-19 10:59N 48°43' W 003°58'0 0.0
2018-Oct-19 10:29N 48°43' W 003°58'0 0.0
2018-Oct-19 10:02N 48°43' W 003°58'0 0.0
2018-Oct-19 09:59N 48°43' W 003°58'0 0.0
2018-Oct-19 08:19N 48°43' W 003°58'0 0.0
2018-Oct-19 07:57N 48°43' W 003°58'0 0.0
2018-Oct-19 07:30N 48°43' W 003°58'12 4.5
2018-Oct-19 04:53N 48°55' W 003°58'8116.9
2018-Oct-19 00:03N 50°16' W 004°11'1 9.3
2018-Oct-18 23:55N 50°16' W 004°13'0 0.8
2018-Oct-18 23:30N 50°16' W 004°12'0 0.8
2018-Oct-18 23:03N 50°16' W 004°12'0 1.0
2018-Oct-18 22:58N 50°16' W 004°12'3 1.3
2018-Oct-18 20:51N 50°15' W 004°08'5 6.3
2018-Oct-18 20:05N 50°19' W 004°10'0 9.7
2018-Oct-18 20:04N 50°19' W 004°10'1 9.0
2018-Oct-18 19:59N 50°20' W 004°10'2 3.8
2018-Oct-18 19:30N 50°22' W 004°09'0 0.0
2018-Oct-18 19:04N 50°22' W 004°09'0 0.0
2018-Oct-18 19:01N 50°22' W 004°09'0 0.0
2018-Oct-18 18:31N 50°22' W 004°09'0 0.0
2018-Oct-18 18:04N 50°22' W 004°09'0 0.0
2018-Oct-18 18:01N 50°22' W 004°09'0 0.0
2018-Oct-18 17:31N 50°22' W 004°09'0 0.0
2018-Oct-18 17:04N 50°22' W 004°09'0 0.0
2018-Oct-18 17:01N 50°22' W 004°09'0 0.0
2018-Oct-18 16:31N 50°22' W 004°09'0 0.0
2018-Oct-18 16:04N 50°22' W 004°09'0 0.0
2018-Oct-18 16:01N 50°22' W 004°09'0 0.0
2018-Oct-18 15:31N 50°22' W 004°09'1 2.4
2018-Oct-18 15:03N 50°21' W 004°09'010.1
2018-Oct-18 15:00N 50°20' W 004°10'1220.2
2018-Oct-18 14:24N 50°08' W 004°15'8122.5
2018-Oct-18 10:47N 48°49' W 004°45'622.7
2018-Oct-18 10:30N 48°43' W 004°47'1023.1
2018-Oct-18 10:04N 48°33' W 004°50'122.7
2018-Oct-18 10:00N 48°32' W 004°50'815.2
2018-Oct-18 09:31N 48°24' W 004°49'715.0
2018-Oct-18 09:04N 48°18' W 004°46'122.1
2018-Oct-18 09:00N 48°17' W 004°46'1122.3
2018-Oct-18 08:30N 48°06' W 004°46'714.5
2018-Oct-18 08:03N 47°59' W 004°43'114.7
2018-Oct-18 08:01N 47°59' W 004°43'25622.1
2018-Oct-17 20:25N 43°45' W 003°48'922.6
2018-Oct-17 20:00N 43°36' W 003°46'5 1.1
2018-Oct-17 15:37N 43°31' W 003°45'222.6
2018-Oct-17 15:30N 43°34' W 003°46'1122.6
2018-Oct-17 15:02N 43°44' W 003°49'222.5
2018-Oct-17 14:58N 43°46' W 003°49'25822.5
2018-Oct-17 03:29N 47°57' W 005°10'1022.7
2018-Oct-17 03:03N 48°07' W 005°11'122.8
2018-Oct-17 03:01N 48°08' W 005°10'1223.1
2018-Oct-17 02:29N 48°20' W 005°07'818.8
2018-Oct-17 02:03N 48°27' W 005°01'114.8
2018-Oct-17 02:00N 48°27' W 005°00'1020.8
2018-Oct-17 01:31N 48°36' W 004°50'1022.8
2018-Oct-17 01:04N 48°43' W 004°40'122.8
2018-Oct-17 01:01N 48°44' W 004°39'1222.6
2018-Oct-17 00:29N 48°53' W 004°27'1122.4
2018-Oct-17 00:00N 49°01' W 004°16'1222.2
2018-Oct-16 23:27N 49°10' W 004°03'922.1
2018-Oct-16 23:02N 49°16' W 003°54'222.0
2018-Oct-16 22:57N 49°18' W 003°51'2121.8
2018-Oct-16 21:58N 49°34' W 003°30'3122.1
2018-Oct-16 20:34N 49°56' W 002°56'4023.0
2018-Oct-16 18:51N 50°15' W 002°02'923.7
2018-Oct-16 18:29N 50°19' W 001°50'2823.4
2018-Oct-16 17:18N 50°34' W 001°13'521.8
2018-Oct-16 17:03N 50°37' W 001°07'122.1
2018-Oct-16 17:00N 50°38' W 001°06'815.5
2018-Oct-16 16:30N 50°46' W 001°05'3 6.6
2018-Oct-16 16:03N 50°49' W 001°06'0 0.0
2018-Oct-16 16:00N 50°49' W 001°06'0 0.0
2018-Oct-16 15:30N 50°49' W 001°06'0 0.0
2018-Oct-16 15:04N 50°49' W 001°06'0 0.0
2018-Oct-16 15:01N 50°49' W 001°06'0 0.0
2018-Oct-16 14:30N 50°49' W 001°06'0 0.0
2018-Oct-16 14:00N 50°49' W 001°06'0 0.0
2018-Oct-16 13:31N 50°49' W 001°06'0 0.3
2018-Oct-16 13:03N 50°49' W 001°06'0 5.2
2018-Oct-16 13:00N 50°49' W 001°06'510.4
2018-Oct-16 12:30N 50°44' W 001°03'715.2
2018-Oct-16 12:04N 50°37' W 001°06'121.7
2018-Oct-16 12:01N 50°36' W 001°07'1723.6
2018-Oct-16 11:18N 50°26' W 001°27'1524.0
2018-Oct-16 10:42N 50°15' W 001°43'524.2
2018-Oct-16 10:31N 50°13' W 001°49'1124.0
2018-Oct-16 10:04N 50°06' W 002°03'124.3
2018-Oct-16 10:00N 50°06' W 002°04'10923.1
2018-Oct-16 05:16N 48°58' W 004°16'723.0
2018-Oct-16 04:58N 48°53' W 004°24'1123.0
2018-Oct-16 04:30N 48°46' W 004°36'1022.9
2018-Oct-16 04:04N 48°38' W 004°47'122.9
2018-Oct-16 04:01N 48°38' W 004°48'1122.5
2018-Oct-16 03:31N 48°29' W 004°58'716.3
2018-Oct-16 03:04N 48°23' W 005°06'122.6
2018-Oct-16 03:01N 48°22' W 005°06'1122.7
2018-Oct-16 02:30N 48°11' W 005°10'1022.4
2018-Oct-16 02:03N 48°01' W 005°10'122.4
2018-Oct-16 02:00N 47°60' W 005°09'1122.5
2018-Oct-16 01:30N 47°49' W 005°05'1422.9
2018-Oct-16 00:53N 47°35' W 005°02'1022.6
2018-Oct-16 00:26N 47°25' W 004°59'1722.7
2018-Oct-15 23:40N 47°08' W 004°53'423.1
2018-Oct-15 23:31N 47°05' W 004°51'2022.6
2018-Oct-15 22:37N 46°45' W 004°44'18222.8
2018-Oct-15 14:37N 43°47' W 003°50'223.2
2018-Oct-15 14:31N 43°44' W 003°50'1223.0
2018-Oct-15 14:00N 43°33' W 003°46'6 1.8
2018-Oct-15 10:54N 43°28' W 003°48'6 4.6
2018-Oct-15 09:34N 43°33' W 003°46'122.8
2018-Oct-15 09:31N 43°35' W 003°46'1022.5
2018-Oct-15 09:04N 43°45' W 003°49'122.5
2018-Oct-15 09:00N 43°46' W 003°49'25523.1
2018-Oct-14 21:57N 47°58' W 004°43'716.8
2018-Oct-14 21:30N 48°06' W 004°46'1123.4
2018-Oct-14 21:03N 48°16' W 004°46'122.6
2018-Oct-14 21:00N 48°17' W 004°46'815.7
2018-Oct-14 20:30N 48°25' W 004°49'714.7
2018-Oct-14 20:04N 48°31' W 004°51'114.6
2018-Oct-14 20:00N 48°32' W 004°51'1121.6
2018-Oct-14 19:30N 48°42' W 004°46'1022.0
2018-Oct-14 19:03N 48°52' W 004°41'7122.5
2018-Oct-14 15:55N 50°01' W 004°17'1922.6
2018-Oct-14 15:04N 50°19' W 004°10'017.0
2018-Oct-14 15:03N 50°20' W 004°10'114.0
2018-Oct-14 15:00N 50°20' W 004°10'2 3.4
2018-Oct-14 14:30N 50°22' W 004°09'0 0.0
2018-Oct-14 14:00N 50°22' W 004°09'0 0.0
2018-Oct-14 13:30N 50°22' W 004°09'0 0.0
2018-Oct-14 13:03N 50°22' W 004°09'0 0.0
2018-Oct-14 13:00N 50°22' W 004°09'0 0.0
2018-Oct-14 12:30N 50°22' W 004°09'1 2.8
2018-Oct-14 12:03N 50°21' W 004°09'110.0
2018-Oct-14 12:00N 50°20' W 004°10'916.8
2018-Oct-14 11:28N 50°11' W 004°08'  
Track history (hours):
 
Tides and Currents Weather Stations Pressure Air Temp Water Temp Dewpoint Dewpoint Depression Visibility Wind Speed Wind Dir Waves Ship Positions

Pont Aven

Last reported at 2018-Oct-24 04:56 UTC. Time now 2018-Oct-24 05:19 UTC.
Position N 47°33' W 005°00'.

Length 185 m; beam 31 m.

Type: Passenger vessel. MMSI: 228183600.

Date/timePositionNaut miles runAvg speedWind from/ knotsBaromVisibWave heightAir tempDewpointWater temp
2018-Oct-24 04:56N 47°33' W 005°00'1123.9
2018-Oct-24 04:28N 47°44' W 005°06'1023.6
2018-Oct-24 04:04N 47°54' W 005°07'123.3
2018-Oct-24 04:01N 47°55' W 005°07'1122.9
2018-Oct-24 03:30N 48°06' W 005°10'1022.1
2018-Oct-24 03:03N 48°16' W 005°08'122.3
2018-Oct-24 03:01N 48°17' W 005°08'1019.6
2018-Oct-24 02:31N 48°26' W 005°03'817.3
2018-Oct-24 02:03N 48°32' W 004°55'121.4
2018-Oct-24 02:01N 48°33' W 004°54'1020.7
2018-Oct-24 01:31N 48°41' W 004°44'1021.7
2018-Oct-24 01:03N 48°48' W 004°34'122.0
2018-Oct-24 01:01N 48°49' W 004°33'1122.9
2018-Oct-24 00:31N 48°57' W 004°21'1123.6
2018-Oct-24 00:04N 49°05' W 004°11'123.7
2018-Oct-24 00:01N 49°06' W 004°10'1224.4
2018-Oct-23 23:31N 49°16' W 003°57'1124.7
2018-Oct-23 23:03N 49°24' W 003°46'124.9
2018-Oct-23 23:00N 49°25' W 003°45'1224.7
2018-Oct-23 22:31N 49°34' W 003°32'1124.2
2018-Oct-23 22:03N 49°41' W 003°20'224.0
2018-Oct-23 21:59N 49°42' W 003°18'1223.5
2018-Oct-23 21:29N 49°51' W 003°04'1022.6
2018-Oct-23 21:02N 49°58' W 002°53'122.3
2018-Oct-23 21:00N 49°58' W 002°52'2721.1
2018-Oct-23 19:44N 50°09' W 002°14'1120.0
2018-Oct-23 19:10N 50°15' W 001°59'219.9
2018-Oct-23 19:03N 50°16' W 001°56'120.3
2018-Oct-23 19:01N 50°16' W 001°54'1620.0
2018-Oct-23 18:11N 50°25' W 001°32'820.2
2018-Oct-23 17:49N 50°28' W 001°22'620.0
2018-Oct-23 17:30N 50°31' W 001°14'919.6
2018-Oct-23 17:03N 50°36' W 001°02'120.0
2018-Oct-23 17:00N 50°37' W 001°01'714.8
2018-Oct-23 16:30N 50°44' W 001°03'511.1
2018-Oct-23 16:04N 50°49' W 001°06'0 4.6
2018-Oct-23 16:00N 50°49' W 001°06'0 0.1
2018-Oct-23 15:30N 50°49' W 001°06'0 0.0
2018-Oct-23 15:03N 50°49' W 001°06'0 0.0
2018-Oct-23 15:00N 50°49' W 001°06'0 0.0
2018-Oct-23 14:30N 50°49' W 001°06'0 0.0
2018-Oct-23 13:30N 50°49' W 001°06'0 0.7
2018-Oct-23 13:04N 50°49' W 001°06'0 6.9
2018-Oct-23 13:01N 50°48' W 001°07'611.2
2018-Oct-23 12:31N 50°43' W 001°03'715.2
2018-Oct-23 12:03N 50°37' W 001°06'119.5
2018-Oct-23 12:00N 50°36' W 001°07'1019.7
2018-Oct-23 11:29N 50°28' W 001°18'921.0
2018-Oct-23 11:03N 50°23' W 001°29'121.6
2018-Oct-23 11:00N 50°22' W 001°31'1122.1
2018-Oct-23 10:30N 50°15' W 001°44'1022.7
2018-Oct-23 10:04N 50°09' W 001°56'123.0
2018-Oct-23 10:01N 50°08' W 001°58'1223.3
2018-Oct-23 09:30N 50°01' W 002°12'1123.6
2018-Oct-23 09:03N 49°55' W 002°26'123.8
2018-Oct-23 09:00N 49°55' W 002°28'1223.8
2018-Oct-23 08:30N 49°51' W 002°45'2523.6
2018-Oct-23 07:26N 49°35' W 003°16'5223.7
2018-Oct-23 05:15N 48°59' W 004°13'524.0
2018-Oct-23 05:03N 48°56' W 004°18'223.9
2018-Oct-23 04:57N 48°54' W 004°21'1123.8
2018-Oct-23 04:31N 48°47' W 004°32'1123.9
2018-Oct-23 04:03N 48°39' W 004°44'124.0
2018-Oct-23 04:01N 48°38' W 004°46'1122.9
2018-Oct-23 03:30N 48°30' W 004°57'716.3
2018-Oct-23 03:03N 48°24' W 005°05'116.3
2018-Oct-23 03:00N 48°24' W 005°05'1122.6
2018-Oct-23 02:31N 48°13' W 005°09'1123.8
2018-Oct-23 02:03N 48°02' W 005°10'223.8
2018-Oct-23 01:58N 47°60' W 005°09'1123.5
2018-Oct-23 01:30N 47°49' W 005°06'1022.9
2018-Oct-23 01:04N 47°39' W 005°02'122.9
2018-Oct-23 01:00N 47°38' W 005°02'1622.9
2018-Oct-23 00:17N 47°22' W 004°56'523.1
2018-Oct-23 00:03N 47°17' W 004°54'323.0
2018-Oct-22 23:56N 47°14' W 004°53'1022.7
2018-Oct-22 23:30N 47°05' W 004°51'20422.2
2018-Oct-22 14:19N 43°45' W 003°50'1712.8
2018-Oct-22 12:57N 43°28' W 003°48'4 1.2
2018-Oct-22 09:37N 43°31' W 003°45'323.5
2018-Oct-22 09:31N 43°33' W 003°46'1123.6
2018-Oct-22 09:04N 43°44' W 003°49'123.3
2018-Oct-22 09:01N 43°45' W 003°50'19923.6
2018-Oct-22 00:34N 46°59' W 004°49'223.0
2018-Oct-22 00:30N 47°01' W 004°50'1023.3
2018-Oct-22 00:03N 47°11' W 004°53'123.4
2018-Oct-22 00:00N 47°12' W 004°54'1123.0
2018-Oct-21 23:31N 47°23' W 004°58'1023.0
2018-Oct-21 23:04N 47°33' W 005°01'122.6
2018-Oct-21 23:00N 47°34' W 005°01'1122.8
2018-Oct-21 22:31N 47°46' W 005°05'1022.5
2018-Oct-21 22:04N 47°55' W 005°08'322.4
2018-Oct-21 21:55N 47°58' W 005°09'922.4
2018-Oct-21 21:30N 48°08' W 005°10'2120.6
2018-Oct-21 20:30N 48°27' W 005°00'921.1
2018-Oct-21 20:03N 48°36' W 004°57'124.5
2018-Oct-21 20:01N 48°38' W 004°56'1224.5
2018-Oct-21 19:31N 48°50' W 004°53'1124.3
2018-Oct-21 19:03N 49°00' W 004°48'227.9
2018-Oct-21 18:59N 49°02' W 004°48'1123.3
2018-Oct-21 18:31N 49°13' W 004°42'1123.6
2018-Oct-21 18:03N 49°23' W 004°36'123.3
2018-Oct-21 18:01N 49°24' W 004°36'1223.3
2018-Oct-21 17:30N 49°35' W 004°31'1622.9
2018-Oct-21 16:48N 49°50' W 004°21'1022.7
2018-Oct-21 16:21N 49°60' W 004°17'1822.5
2018-Oct-21 15:32N 50°18' W 004°11'221.0
2018-Oct-21 15:27N 50°19' W 004°11'3 6.5
2018-Oct-21 15:04N 50°22' W 004°09'0 0.0
2018-Oct-21 15:01N 50°22' W 004°09'0 0.0
2018-Oct-21 14:31N 50°22' W 004°09'0 0.0
2018-Oct-21 14:01N 50°22' W 004°09'0 0.0
2018-Oct-21 13:31N 50°22' W 004°09'0 0.0
2018-Oct-21 13:03N 50°22' W 004°09'0 0.0
2018-Oct-21 13:00N 50°22' W 004°09'0 0.0
2018-Oct-21 12:30N 50°22' W 004°09'1 2.4
2018-Oct-21 12:04N 50°21' W 004°09'1 9.5
2018-Oct-21 12:00N 50°20' W 004°09'918.2
2018-Oct-21 11:29N 50°11' W 004°10'1121.9
2018-Oct-21 10:59N 50°00' W 004°07'1021.7
2018-Oct-21 10:30N 49°50' W 004°06'1022.2
2018-Oct-21 10:03N 49°40' W 004°04'122.4
2018-Oct-21 10:00N 49°39' W 004°04'1322.7
2018-Oct-21 09:27N 49°26' W 004°03'1122.4
2018-Oct-21 08:58N 49°15' W 004°02'1022.3
2018-Oct-21 08:30N 49°05' W 004°01'1022.4
2018-Oct-21 08:03N 48°55' W 003°59'122.3
2018-Oct-21 08:00N 48°54' W 003°59'1020.7
2018-Oct-21 07:31N 48°44' W 003°57'1 1.9
2018-Oct-21 07:03N 48°43' W 003°58'0 0.0
2018-Oct-21 07:01N 48°43' W 003°58'0 0.0
2018-Oct-21 06:31N 48°43' W 003°58'0 0.0
2018-Oct-21 06:03N 48°43' W 003°58'0 0.0
2018-Oct-21 06:01N 48°43' W 003°58'0 0.0
2018-Oct-21 05:31N 48°43' W 003°58'0 0.0
2018-Oct-21 05:03N 48°43' W 003°58'0 0.0
2018-Oct-21 05:00N 48°43' W 003°58'2 3.3
2018-Oct-21 04:30N 48°45' W 003°57'817.5
2018-Oct-21 04:03N 48°51' W 004°05'119.9
2018-Oct-21 04:00N 48°51' W 004°06'1019.9
2018-Oct-21 03:30N 48°58' W 004°17'920.0
2018-Oct-21 03:03N 49°04' W 004°27'120.4
2018-Oct-21 03:00N 49°05' W 004°28'1020.0
2018-Oct-21 02:30N 49°11' W 004°40'920.1
2018-Oct-21 02:03N 49°18' W 004°50'120.4
2018-Oct-21 02:00N 49°18' W 004°51'1020.3
2018-Oct-21 01:30N 49°25' W 005°02'920.3
2018-Oct-21 01:03N 49°31' W 005°13'220.0
2018-Oct-21 00:58N 49°32' W 005°16'920.1
2018-Oct-21 00:30N 49°38' W 005°27'920.1
2018-Oct-21 00:03N 49°43' W 005°38'119.9
2018-Oct-21 00:01N 49°44' W 005°39'1319.8
2018-Oct-20 23:21N 49°52' W 005°55'1118.0
2018-Oct-20 22:44N 50°03' W 006°00'519.4
2018-Oct-20 22:28N 50°08' W 006°01'819.5
2018-Oct-20 22:03N 50°16' W 006°02'119.6
2018-Oct-20 22:00N 50°17' W 006°03'918.6
2018-Oct-20 21:30N 50°25' W 006°10'919.6
2018-Oct-20 21:03N 50°31' W 006°20'119.9
2018-Oct-20 21:00N 50°32' W 006°21'1019.8
2018-Oct-20 20:30N 50°39' W 006°32'2019.6
2018-Oct-20 19:29N 50°53' W 006°54'4819.5
2018-Oct-20 17:01N 51°28' W 007°48'119.8
2018-Oct-20 16:59N 51°28' W 007°48'919.8
2018-Oct-20 16:30N 51°35' W 007°59'920.0
2018-Oct-20 16:03N 51°41' W 008°09'120.1
2018-Oct-20 16:00N 51°42' W 008°10'815.4
2018-Oct-20 15:30N 51°49' W 008°16'2 5.2
2018-Oct-20 15:03N 51°50' W 008°19'0 8.0
2018-Oct-20 15:01N 51°50' W 008°19'0 0.7
2018-Oct-20 14:30N 51°50' W 008°19'0 0.0
2018-Oct-20 14:00N 51°50' W 008°19'0 0.0
2018-Oct-20 13:30N 51°50' W 008°19'0 0.0
2018-Oct-20 13:03N 51°50' W 008°19'0 0.0
2018-Oct-20 13:00N 51°50' W 008°19'0 0.0
2018-Oct-20 12:30N 51°50' W 008°19'0 0.0
2018-Oct-20 12:01N 51°50' W 008°19'0 0.0
2018-Oct-20 11:58N 51°50' W 008°19'0 0.0
2018-Oct-20 11:28N 51°50' W 008°19'0 0.0
2018-Oct-20 11:01N 51°50' W 008°19'0 0.0
2018-Oct-20 10:58N 51°50' W 008°19'0 0.0
2018-Oct-20 10:28N 51°50' W 008°19'0 0.0
2018-Oct-20 10:01N 51°50' W 008°19'0 0.0
2018-Oct-20 09:58N 51°50' W 008°19'0 0.0
2018-Oct-20 09:28N 51°50' W 008°19'0 0.0
2018-Oct-20 09:01N 51°50' W 008°19'0 0.0
2018-Oct-20 08:58N 51°50' W 008°19'0 0.0
2018-Oct-20 08:28N 51°50' W 008°19'1 1.3
2018-Oct-20 08:03N 51°50' W 008°19'0 7.7
2018-Oct-20 08:00N 51°51' W 008°19'3 6.9
2018-Oct-20 07:30N 51°48' W 008°16'918.9
2018-Oct-20 07:03N 51°41' W 008°07'121.7
2018-Oct-20 07:00N 51°40' W 008°05'1121.6
2018-Oct-20 06:30N 51°33' W 007°52'1021.6
2018-Oct-20 06:03N 51°27' W 007°41'121.7
2018-Oct-20 06:00N 51°26' W 007°39'1121.6
2018-Oct-20 05:30N 51°18' W 007°28'1119.6
2018-Oct-20 04:58N 51°10' W 007°16'1319.7
2018-Oct-20 04:19N 51°01' W 007°03'619.5
2018-Oct-20 04:00N 50°57' W 006°55'2119.4
2018-Oct-20 02:56N 50°42' W 006°32'2119.5
2018-Oct-20 01:50N 50°28' W 006°07'919.5
2018-Oct-20 01:24N 50°22' W 005°58'1119.6
2018-Oct-20 00:49N 50°11' W 005°53'11519.0
2018-Oct-19 18:47N 48°45' W 003°57'2 0.2
2018-Oct-19 11:17N 48°43' W 003°58'0 0.0
2018-Oct-19 11:02N 48°43' W 003°58'0 0.0
2018-Oct-19 10:59N 48°43' W 003°58'0 0.0
2018-Oct-19 10:29N 48°43' W 003°58'0 0.0
2018-Oct-19 10:02N 48°43' W 003°58'0 0.0
2018-Oct-19 09:59N 48°43' W 003°58'0 0.0
2018-Oct-19 08:19N 48°43' W 003°58'0 0.0
2018-Oct-19 07:57N 48°43' W 003°58'0 0.0
2018-Oct-19 07:30N 48°43' W 003°58'12 4.5
2018-Oct-19 04:53N 48°55' W 003°58'8116.9
2018-Oct-19 00:03N 50°16' W 004°11'1 9.3
2018-Oct-18 23:55N 50°16' W 004°13'0 0.8
2018-Oct-18 23:30N 50°16' W 004°12'0 0.8
2018-Oct-18 23:03N 50°16' W 004°12'0 1.0
2018-Oct-18 22:58N 50°16' W 004°12'3 1.3
2018-Oct-18 20:51N 50°15' W 004°08'5 6.3
2018-Oct-18 20:05N 50°19' W 004°10'0 9.7
2018-Oct-18 20:04N 50°19' W 004°10'1 9.0
2018-Oct-18 19:59N 50°20' W 004°10'2 3.8
2018-Oct-18 19:30N 50°22' W 004°09'0 0.0
2018-Oct-18 19:04N 50°22' W 004°09'0 0.0
2018-Oct-18 19:01N 50°22' W 004°09'0 0.0
2018-Oct-18 18:31N 50°22' W 004°09'0 0.0
2018-Oct-18 18:04N 50°22' W 004°09'0 0.0
2018-Oct-18 18:01N 50°22' W 004°09'0 0.0
2018-Oct-18 17:31N 50°22' W 004°09'0 0.0
2018-Oct-18 17:04N 50°22' W 004°09'0 0.0
2018-Oct-18 17:01N 50°22' W 004°09'0 0.0
2018-Oct-18 16:31N 50°22' W 004°09'0 0.0
2018-Oct-18 16:04N 50°22' W 004°09'0 0.0
2018-Oct-18 16:01N 50°22' W 004°09'0 0.0
2018-Oct-18 15:31N 50°22' W 004°09'1 2.4
2018-Oct-18 15:03N 50°21' W 004°09'010.1
2018-Oct-18 15:00N 50°20' W 004°10'1220.2
2018-Oct-18 14:24N 50°08' W 004°15'8122.5
2018-Oct-18 10:47N 48°49' W 004°45'622.7
2018-Oct-18 10:30N 48°43' W 004°47'1023.1
2018-Oct-18 10:04N 48°33' W 004°50'122.7
2018-Oct-18 10:00N 48°32' W 004°50'815.2
2018-Oct-18 09:31N 48°24' W 004°49'715.0
2018-Oct-18 09:04N 48°18' W 004°46'122.1
2018-Oct-18 09:00N 48°17' W 004°46'1122.3
2018-Oct-18 08:30N 48°06' W 004°46'714.5
2018-Oct-18 08:03N 47°59' W 004°43'114.7
2018-Oct-18 08:01N 47°59' W 004°43'25622.1
2018-Oct-17 20:25N 43°45' W 003°48'922.6
2018-Oct-17 20:00N 43°36' W 003°46'5 1.1
2018-Oct-17 15:37N 43°31' W 003°45'222.6
2018-Oct-17 15:30N 43°34' W 003°46'1122.6
2018-Oct-17 15:02N 43°44' W 003°49'222.5
2018-Oct-17 14:58N 43°46' W 003°49'25822.5
2018-Oct-17 03:29N 47°57' W 005°10'1022.7
2018-Oct-17 03:03N 48°07' W 005°11'122.8
2018-Oct-17 03:01N 48°08' W 005°10'1223.1
2018-Oct-17 02:29N 48°20' W 005°07'818.8
2018-Oct-17 02:03N 48°27' W 005°01'114.8
2018-Oct-17 02:00N 48°27' W 005°00'1020.8
2018-Oct-17 01:31N 48°36' W 004°50'1022.8
2018-Oct-17 01:04N 48°43' W 004°40'122.8
2018-Oct-17 01:01N 48°44' W 004°39'1222.6
2018-Oct-17 00:29N 48°53' W 004°27'1122.4
2018-Oct-17 00:00N 49°01' W 004°16'1222.2
2018-Oct-16 23:27N 49°10' W 004°03'922.1
2018-Oct-16 23:02N 49°16' W 003°54'222.0
2018-Oct-16 22:57N 49°18' W 003°51'2121.8
2018-Oct-16 21:58N 49°34' W 003°30'3122.1
2018-Oct-16 20:34N 49°56' W 002°56'4023.0
2018-Oct-16 18:51N 50°15' W 002°02'923.7
2018-Oct-16 18:29N 50°19' W 001°50'2823.4
2018-Oct-16 17:18N 50°34' W 001°13'521.8
2018-Oct-16 17:03N 50°37' W 001°07'122.1
2018-Oct-16 17:00N 50°38' W 001°06'815.5
2018-Oct-16 16:30N 50°46' W 001°05'3 6.6
2018-Oct-16 16:03N 50°49' W 001°06'0 0.0
2018-Oct-16 16:00N 50°49' W 001°06'0 0.0
2018-Oct-16 15:30N 50°49' W 001°06'0 0.0
2018-Oct-16 15:04N 50°49' W 001°06'0 0.0
2018-Oct-16 15:01N 50°49' W 001°06'0 0.0
2018-Oct-16 14:30N 50°49' W 001°06'0 0.0
2018-Oct-16 14:00N 50°49' W 001°06'0 0.0
2018-Oct-16 13:31N 50°49' W 001°06'0 0.3
2018-Oct-16 13:03N 50°49' W 001°06'0 5.2
2018-Oct-16 13:00N 50°49' W 001°06'510.4
2018-Oct-16 12:30N 50°44' W 001°03'715.2
2018-Oct-16 12:04N 50°37' W 001°06'121.7
2018-Oct-16 12:01N 50°36' W 001°07'1723.6
2018-Oct-16 11:18N 50°26' W 001°27'1524.0
2018-Oct-16 10:42N 50°15' W 001°43'524.2
2018-Oct-16 10:31N 50°13' W 001°49'1124.0
2018-Oct-16 10:04N 50°06' W 002°03'124.3
2018-Oct-16 10:00N 50°06' W 002°04'10923.1
2018-Oct-16 05:16N 48°58' W 004°16'723.0
2018-Oct-16 04:58N 48°53' W 004°24'1123.0
2018-Oct-16 04:30N 48°46' W 004°36'1022.9
2018-Oct-16 04:04N 48°38' W 004°47'122.9
2018-Oct-16 04:01N 48°38' W 004°48'1122.5
2018-Oct-16 03:31N 48°29' W 004°58'716.3
2018-Oct-16 03:04N 48°23' W 005°06'122.6
2018-Oct-16 03:01N 48°22' W 005°06'1122.7
2018-Oct-16 02:30N 48°11' W 005°10'1022.4
2018-Oct-16 02:03N 48°01' W 005°10'122.4
2018-Oct-16 02:00N 47°60' W 005°09'1122.5
2018-Oct-16 01:30N 47°49' W 005°05'1422.9
2018-Oct-16 00:53N 47°35' W 005°02'1022.6
2018-Oct-16 00:26N 47°25' W 004°59'1722.7
2018-Oct-15 23:40N 47°08' W 004°53'423.1
2018-Oct-15 23:31N 47°05' W 004°51'2022.6
2018-Oct-15 22:37N 46°45' W 004°44'18222.8
2018-Oct-15 14:37N 43°47' W 003°50'223.2
2018-Oct-15 14:31N 43°44' W 003°50'1223.0
2018-Oct-15 14:00N 43°33' W 003°46'6 1.8
2018-Oct-15 10:54N 43°28' W 003°48'6 4.6
2018-Oct-15 09:34N 43°33' W 003°46'122.8
2018-Oct-15 09:31N 43°35' W 003°46'1022.5
2018-Oct-15 09:04N 43°45' W 003°49'122.5
2018-Oct-15 09:00N 43°46' W 003°49'25523.1
2018-Oct-14 21:57N 47°58' W 004°43'716.8
2018-Oct-14 21:30N 48°06' W 004°46'1123.4
2018-Oct-14 21:03N 48°16' W 004°46'122.6
2018-Oct-14 21:00N 48°17' W 004°46'815.7
2018-Oct-14 20:30N 48°25' W 004°49'714.7
2018-Oct-14 20:04N 48°31' W 004°51'114.6
2018-Oct-14 20:00N 48°32' W 004°51'1121.6
2018-Oct-14 19:30N 48°42' W 004°46'1022.0
2018-Oct-14 19:03N 48°52' W 004°41'7122.5
2018-Oct-14 15:55N 50°01' W 004°17'1922.6
2018-Oct-14 15:04N 50°19' W 004°10'017.0
2018-Oct-14 15:03N 50°20' W 004°10'114.0
2018-Oct-14 15:00N 50°20' W 004°10'2 3.4
2018-Oct-14 14:30N 50°22' W 004°09'0 0.0
2018-Oct-14 14:00N 50°22' W 004°09'0 0.0
2018-Oct-14 13:30N 50°22' W 004°09'0 0.0
2018-Oct-14 13:03N 50°22' W 004°09'0 0.0
2018-Oct-14 13:00N 50°22' W 004°09'0 0.0
2018-Oct-14 12:30N 50°22' W 004°09'1 2.8
2018-Oct-14 12:03N 50°21' W 004°09'110.0
2018-Oct-14 12:00N 50°20' W 004°10'916.8
2018-Oct-14 11:28N 50°11' W 004°08'  

Dump ship's entire track history